sensor_id;sensor_type;location;lat;lon;timestamp;pressure;altitude;pressure_sealevel;temperature;humidity
58668;BME280;59852;43.086;25.634;2023-01-29T00:02:17;99085.44;;;0.21;93.74
58668;BME280;59852;43.086;25.634;2023-01-29T00:04:43;99084.63;;;0.19;94.20
58668;BME280;59852;43.086;25.634;2023-01-29T00:07:08;99086.97;;;0.30;93.71
58668;BME280;59852;43.086;25.634;2023-01-29T00:09:34;99085.41;;;0.22;94.05
58668;BME280;59852;43.086;25.634;2023-01-29T00:11:59;99085.59;;;0.15;93.94
58668;BME280;59852;43.086;25.634;2023-01-29T00:14:24;99083.75;;;0.20;94.14
58668;BME280;59852;43.086;25.634;2023-01-29T00:16:53;99090.56;;;0.22;93.66
58668;BME280;59852;43.086;25.634;2023-01-29T00:19:18;99094.69;;;0.28;93.63
58668;BME280;59852;43.086;25.634;2023-01-29T00:21:44;99094.69;;;0.30;93.51
58668;BME280;59852;43.086;25.634;2023-01-29T00:24:09;99099.75;;;0.33;93.52
58668;BME280;59852;43.086;25.634;2023-01-29T00:26:35;99092.88;;;0.33;93.48
58668;BME280;59852;43.086;25.634;2023-01-29T00:29:03;99102.31;;;0.33;93.57
58668;BME280;59852;43.086;25.634;2023-01-29T00:31:28;99102.31;;;0.33;93.37
58668;BME280;59852;43.086;25.634;2023-01-29T00:33:53;99096.47;;;0.26;93.36
58668;BME280;59852;43.086;25.634;2023-01-29T00:36:19;99110.38;;;0.17;93.83
58668;BME280;59852;43.086;25.634;2023-01-29T00:38:45;99093.19;;;0.19;94.41
58668;BME280;59852;43.086;25.634;2023-01-29T00:41:18;99093.75;;;0.32;93.83
58668;BME280;59852;43.086;25.634;2023-01-29T00:44:03;99092.97;;;0.28;93.14
58668;BME280;59852;43.086;25.634;2023-01-29T00:46:47;99099.03;;;0.26;93.84
58668;BME280;59852;43.086;25.634;2023-01-29T00:49:12;99095.97;;;0.12;94.06
58668;BME280;59852;43.086;25.634;2023-01-29T00:51:37;99094.28;;;0.11;94.47
58668;BME280;59852;43.086;25.634;2023-01-29T00:54:03;99101.22;;;0.06;94.36
58668;BME280;59852;43.086;25.634;2023-01-29T00:56:31;99103.09;;;-0.01;95.50
58668;BME280;59852;43.086;25.634;2023-01-29T00:58:56;99095.75;;;0.21;95.26
58668;BME280;59852;43.086;25.634;2023-01-29T01:01:22;99098.94;;;0.29;94.44
58668;BME280;59852;43.086;25.634;2023-01-29T01:04:06;99095.75;;;0.21;93.77
58668;BME280;59852;43.086;25.634;2023-01-29T01:06:32;99100.59;;;0.33;93.31
58668;BME280;59852;43.086;25.634;2023-01-29T01:08:57;99100.94;;;0.18;93.71
58668;BME280;59852;43.086;25.634;2023-01-29T01:11:41;99093.88;;;0.26;93.64
58668;BME280;59852;43.086;25.634;2023-01-29T01:14:06;99100.66;;;0.30;93.13
58668;BME280;59852;43.086;25.634;2023-01-29T01:16:32;99110.50;;;0.13;93.34
58668;BME280;59852;43.086;25.634;2023-01-29T01:18:57;99106.03;;;0.21;94.32
58668;BME280;59852;43.086;25.634;2023-01-29T01:21:23;99109.53;;;0.17;93.67
58668;BME280;59852;43.086;25.634;2023-01-29T01:23:48;99107.78;;;0.19;93.60
58668;BME280;59852;43.086;25.634;2023-01-29T01:26:16;99113.00;;;0.16;94.02
58668;BME280;59852;43.086;25.634;2023-01-29T01:28:41;99109.69;;;0.11;93.88
58668;BME280;59852;43.086;25.634;2023-01-29T01:31:07;99114.09;;;0.06;94.33
58668;BME280;59852;43.086;25.634;2023-01-29T01:33:32;99119.28;;;0.04;94.71
58668;BME280;59852;43.086;25.634;2023-01-29T01:36:00;99114.41;;;-0.08;95.08
58668;BME280;59852;43.086;25.634;2023-01-29T01:38:25;99111.16;;;-0.16;94.90
58668;BME280;59852;43.086;25.634;2023-01-29T01:40:51;99117.06;;;-0.13;95.73
58668;BME280;59852;43.086;25.634;2023-01-29T01:43:16;99119.28;;;0.04;95.74
58668;BME280;59852;43.086;25.634;2023-01-29T01:45:41;99119.72;;;-0.16;95.15
58668;BME280;59852;43.086;25.634;2023-01-29T01:48:20;99117.28;;;0.15;95.02
58668;BME280;59852;43.086;25.634;2023-01-29T01:51:08;99109.38;;;0.24;94.49
58668;BME280;59852;43.086;25.634;2023-01-29T01:53:33;99106.03;;;0.19;94.49
58668;BME280;59852;43.086;25.634;2023-01-29T01:56:04;99108.41;;;0.28;93.94
58668;BME280;59852;43.086;25.634;2023-01-29T01:58:32;99111.38;;;0.12;94.36
58668;BME280;59852;43.086;25.634;2023-01-29T02:00:59;99103.25;;;0.30;93.80
58668;BME280;59852;43.086;25.634;2023-01-29T02:03:25;99104.03;;;0.32;93.80
58668;BME280;59852;43.086;25.634;2023-01-29T02:06:10;99103.25;;;0.30;93.69
58668;BME280;59852;43.086;25.634;2023-01-29T02:08:59;99105.78;;;0.32;93.09
58668;BME280;59852;43.086;25.634;2023-01-29T02:11:44;99105.72;;;0.33;92.94
58668;BME280;59852;43.086;25.634;2023-01-29T02:14:10;99107.50;;;0.31;93.27
58668;BME280;59852;43.086;25.634;2023-01-29T02:16:36;99107.22;;;0.06;93.54
58668;BME280;59852;43.086;25.634;2023-01-29T02:19:01;99110.25;;;-0.14;95.38
58668;BME280;59852;43.086;25.634;2023-01-29T02:25:16;99112.81;;;-0.14;95.11
58668;BME280;59852;43.086;25.634;2023-01-29T02:27:07;99113.44;;;-0.04;95.65
58668;BME280;59852;43.086;25.634;2023-01-29T02:32:29;99122.81;;;-0.02;95.15
58668;BME280;59852;43.086;25.634;2023-01-29T02:35:02;99117.72;;;-0.03;95.05
58668;BME280;59852;43.086;25.634;2023-01-29T02:37:53;99122.56;;;0.11;94.55
58668;BME280;59852;43.086;25.634;2023-01-29T02:40:27;99128.69;;;0.05;95.17
58668;BME280;59852;43.086;25.634;2023-01-29T02:43:03;99121.75;;;0.07;94.92
58668;BME280;59852;43.086;25.634;2023-01-29T02:45:32;99121.84;;;0.04;94.32
58668;BME280;59852;43.086;25.634;2023-01-29T02:47:59;99120.41;;;-0.08;94.96
58668;BME280;59852;43.086;25.634;2023-01-29T02:50:36;99123.19;;;0.20;95.12
58668;BME280;59852;43.086;25.634;2023-01-29T02:53:08;99130.16;;;0.15;94.19
58668;BME280;59852;43.086;25.634;2023-01-29T03:00:43;99120.25;;;0.00;95.08
58668;BME280;59852;43.086;25.634;2023-01-29T03:06:00;99122.19;;;0.26;93.88
58668;BME280;59852;43.086;25.634;2023-01-29T03:08:40;99125.78;;;0.19;93.83
58668;BME280;59852;43.086;25.634;2023-01-29T03:11:10;99127.50;;;0.20;94.48
58668;BME280;59852;43.086;25.634;2023-01-29T03:18:36;99138.22;;;0.37;93.35
58668;BME280;59852;43.086;25.634;2023-01-29T03:21:10;99138.16;;;0.39;92.89
58668;BME280;59852;43.086;25.634;2023-01-29T03:23:55;99147.78;;;0.32;93.09
58668;BME280;59852;43.086;25.634;2023-01-29T03:26:40;99149.69;;;0.24;92.95
58668;BME280;59852;43.086;25.634;2023-01-29T03:29:25;99147.94;;;0.24;93.43
58668;BME280;59852;43.086;25.634;2023-01-29T03:32:09;99143.00;;;0.15;94.24
58668;BME280;59852;43.086;25.634;2023-01-29T03:34:42;99143.84;;;0.16;94.23
58668;BME280;59852;43.086;25.634;2023-01-29T03:39:53;99152.28;;;0.22;94.29
58668;BME280;59852;43.086;25.634;2023-01-29T03:44:57;99146.06;;;0.33;93.72
58668;BME280;59852;43.086;25.634;2023-01-29T03:50:02;99149.56;;;0.30;93.24
58668;BME280;59852;43.086;25.634;2023-01-29T03:57:34;99145.94;;;0.37;93.18
58668;BME280;59852;43.086;25.634;2023-01-29T04:00:07;99142.00;;;0.22;93.01
58668;BME280;59852;43.086;25.634;2023-01-29T04:02:41;99149.50;;;0.32;93.00
58668;BME280;59852;43.086;25.634;2023-01-29T04:05:12;99146.00;;;0.34;92.90
58668;BME280;59852;43.086;25.634;2023-01-29T04:07:40;99149.50;;;0.32;93.52
58668;BME280;59852;43.086;25.634;2023-01-29T04:10:11;99143.31;;;0.39;92.72
58668;BME280;59852;43.086;25.634;2023-01-29T04:12:43;99142.47;;;0.40;92.64
58668;BME280;59852;43.086;25.634;2023-01-29T04:15:12;99148.84;;;0.23;92.96
58668;BME280;59852;43.086;25.634;2023-01-29T04:17:42;99153.22;;;0.20;93.69
58668;BME280;59852;43.086;25.634;2023-01-29T04:20:09;99152.34;;;0.21;93.28
58668;BME280;59852;43.086;25.634;2023-01-29T04:22:35;99152.97;;;0.29;93.50
58668;BME280;59852;43.086;25.634;2023-01-29T04:25:02;99151.44;;;0.22;93.70
58668;BME280;59852;43.086;25.634;2023-01-29T04:35:07;99162.25;;;0.36;92.99
58668;BME280;59852;43.086;25.634;2023-01-29T04:40:30;99163.47;;;0.21;93.57
58668;BME280;59852;43.086;25.634;2023-01-29T04:43:02;99164.72;;;0.04;94.05
58668;BME280;59852;43.086;25.634;2023-01-29T04:51:09;99153.06;;;0.26;94.36
58668;BME280;59852;43.086;25.634;2023-01-29T04:53:45;99163.28;;;0.29;93.66
58668;BME280;59852;43.086;25.634;2023-01-29T04:56:17;99170.22;;;0.25;93.65
58668;BME280;59852;43.086;25.634;2023-01-29T04:58:44;99172.63;;;0.33;93.53
58668;BME280;59852;43.086;25.634;2023-01-29T05:01:12;99166.59;;;0.34;93.58
58668;BME280;59852;43.086;25.634;2023-01-29T05:03:39;99171.22;;;0.18;93.89
58668;BME280;59852;43.086;25.634;2023-01-29T05:06:05;99179.78;;;0.19;93.72
58668;BME280;59852;43.086;25.634;2023-01-29T05:08:32;99173.03;;;0.15;94.31
58668;BME280;59852;43.086;25.634;2023-01-29T05:10:58;99183.72;;;0.35;93.50
58668;BME280;59852;43.086;25.634;2023-01-29T05:13:24;99192.38;;;0.33;93.47
58668;BME280;59852;43.086;25.634;2023-01-29T05:18:47;99187.97;;;0.36;93.44
58668;BME280;59852;43.086;25.634;2023-01-29T05:21:13;99186.69;;;0.17;93.82
58668;BME280;59852;43.086;25.634;2023-01-29T05:23:38;99188.97;;;0.31;94.19
58668;BME280;59852;43.086;25.634;2023-01-29T05:26:03;99192.31;;;0.34;93.59
58668;BME280;59852;43.086;25.634;2023-01-29T05:28:29;99189.63;;;0.39;93.39
58668;BME280;59852;43.086;25.634;2023-01-29T05:30:55;99187.91;;;0.41;93.16
58668;BME280;59852;43.086;25.634;2023-01-29T05:33:25;99193.94;;;0.40;92.89
58668;BME280;59852;43.086;25.634;2023-01-29T05:35:51;99194.81;;;0.37;92.92
58668;BME280;59852;43.086;25.634;2023-01-29T05:38:17;99195.75;;;0.35;93.31
58668;BME280;59852;43.086;25.634;2023-01-29T05:40:43;99199.16;;;0.35;92.92
58668;BME280;59852;43.086;25.634;2023-01-29T05:43:15;99199.19;;;0.34;93.42
58668;BME280;59852;43.086;25.634;2023-01-29T05:45:41;99207.88;;;0.30;93.29
58668;BME280;59852;43.086;25.634;2023-01-29T05:48:06;99215.53;;;0.33;93.34
58668;BME280;59852;43.086;25.634;2023-01-29T05:50:32;99216.16;;;0.42;92.90
58668;BME280;59852;43.086;25.634;2023-01-29T05:52:58;99217.44;;;0.23;92.96
58668;BME280;59852;43.086;25.634;2023-01-29T05:55:24;99226.66;;;0.33;93.74
58668;BME280;59852;43.086;25.634;2023-01-29T05:57:49;99229.78;;;0.46;93.04
58668;BME280;59852;43.086;25.634;2023-01-29T06:00:14;99232.84;;;0.24;93.22
58668;BME280;59852;43.086;25.634;2023-01-29T06:02:40;99235.66;;;0.14;93.83
58668;BME280;59852;43.086;25.634;2023-01-29T06:05:05;99238.53;;;0.00;94.39
58668;BME280;59852;43.086;25.634;2023-01-29T06:07:31;99240.41;;;0.32;94.22
58668;BME280;59852;43.086;25.634;2023-01-29T06:09:56;99244.75;;;0.30;93.81
58668;BME280;59852;43.086;25.634;2023-01-29T06:12:22;99241.53;;;0.20;93.75
58668;BME280;59852;43.086;25.634;2023-01-29T06:14:47;99251.41;;;0.37;93.49
58668;BME280;59852;43.086;25.634;2023-01-29T06:17:12;99249.63;;;0.42;92.64
58668;BME280;59852;43.086;25.634;2023-01-29T06:19:38;99251.31;;;0.43;92.75
58668;BME280;59852;43.086;25.634;2023-01-29T06:22:03;99246.75;;;0.54;91.84
58668;BME280;59852;43.086;25.634;2023-01-29T06:24:28;99257.13;;;0.51;91.42
58668;BME280;59852;43.086;25.634;2023-01-29T06:26:54;99264.31;;;-0.05;92.63
58668;BME280;59852;43.086;25.634;2023-01-29T06:29:19;99265.25;;;0.33;92.09
58668;BME280;59852;43.086;25.634;2023-01-29T06:31:44;99256.56;;;-0.03;92.79
58668;BME280;59852;43.086;25.634;2023-01-29T06:34:09;99268.66;;;0.34;92.12
58668;BME280;59852;43.086;25.634;2023-01-29T06:36:35;99269.34;;;0.42;91.01
58668;BME280;59852;43.086;25.634;2023-01-29T06:39:01;99273.00;;;0.32;91.34
58668;BME280;59852;43.086;25.634;2023-01-29T06:41:26;99268.06;;;0.22;91.71
58668;BME280;59852;43.086;25.634;2023-01-29T06:43:52;99282.41;;;0.33;92.15
58668;BME280;59852;43.086;25.634;2023-01-29T06:46:18;99282.50;;;0.28;91.88
58668;BME280;59852;43.086;25.634;2023-01-29T06:48:43;99282.38;;;0.34;91.68
58668;BME280;59852;43.086;25.634;2023-01-29T06:51:08;99283.16;;;0.38;91.54
58668;BME280;59852;43.086;25.634;2023-01-29T06:53:34;99287.94;;;0.54;90.84
58668;BME280;59852;43.086;25.634;2023-01-29T06:56:00;99288.06;;;0.48;90.44
58668;BME280;59852;43.086;25.634;2023-01-29T06:58:26;99291.75;;;0.37;91.23
58668;BME280;59852;43.086;25.634;2023-01-29T07:00:51;99290.94;;;0.35;91.90
58668;BME280;59852;43.086;25.634;2023-01-29T07:03:16;99297.38;;;0.54;90.90
58668;BME280;59852;43.086;25.634;2023-01-29T07:05:42;99292.72;;;-0.11;92.91
58668;BME280;59852;43.086;25.634;2023-01-29T07:08:07;99298.44;;;0.45;91.48
58668;BME280;59852;43.086;25.634;2023-01-29T07:10:33;99295.59;;;0.17;92.00
58668;BME280;59852;43.086;25.634;2023-01-29T07:12:59;99302.06;;;0.35;91.75
58668;BME280;59852;43.086;25.634;2023-01-29T07:15:24;99305.66;;;0.30;91.63
58668;BME280;59852;43.086;25.634;2023-01-29T07:17:56;99299.63;;;0.29;91.99
58668;BME280;59852;43.086;25.634;2023-01-29T07:20:23;99302.69;;;0.46;91.04
58668;BME280;59852;43.086;25.634;2023-01-29T07:22:49;99306.91;;;0.49;91.10
58668;BME280;59852;43.086;25.634;2023-01-29T07:25:14;99315.44;;;0.52;91.06
58668;BME280;59852;43.086;25.634;2023-01-29T07:27:39;99309.13;;;0.25;90.79
58668;BME280;59852;43.086;25.634;2023-01-29T07:30:05;99311.19;;;0.08;93.07
58668;BME280;59852;43.086;25.634;2023-01-29T07:32:30;99312.19;;;0.44;92.24
58668;BME280;59852;43.086;25.634;2023-01-29T07:34:56;99311.13;;;0.53;91.22
58668;BME280;59852;43.086;25.634;2023-01-29T07:37:21;99309.72;;;0.38;91.09
58668;BME280;59852;43.086;25.634;2023-01-29T07:39:47;99307.66;;;0.14;92.28
58668;BME280;59852;43.086;25.634;2023-01-29T07:42:12;99313.41;;;0.26;93.16
58668;BME280;59852;43.086;25.634;2023-01-29T07:44:38;99319.69;;;0.13;93.12
58668;BME280;59852;43.086;25.634;2023-01-29T07:47:03;99316.59;;;0.38;92.85
58668;BME280;59852;43.086;25.634;2023-01-29T07:49:28;99317.50;;;-0.07;93.33
58668;BME280;59852;43.086;25.634;2023-01-29T07:51:54;99325.84;;;0.05;94.28
58668;BME280;59852;43.086;25.634;2023-01-29T07:54:20;99333.19;;;0.24;94.80
58668;BME280;59852;43.086;25.634;2023-01-29T07:56:45;99331.41;;;0.26;93.61
58668;BME280;59852;43.086;25.634;2023-01-29T07:59:10;99339.72;;;0.39;93.00
58668;BME280;59852;43.086;25.634;2023-01-29T08:01:35;99330.78;;;0.15;92.99
58668;BME280;59852;43.086;25.634;2023-01-29T08:04:01;99327.25;;;0.19;94.12
58668;BME280;59852;43.086;25.634;2023-01-29T08:06:26;99335.38;;;-0.01;94.90
58668;BME280;59852;43.086;25.634;2023-01-29T08:08:51;99334.28;;;0.13;94.74
58668;BME280;59852;43.086;25.634;2023-01-29T08:11:17;99333.47;;;0.11;95.04
58668;BME280;59852;43.086;25.634;2023-01-29T08:13:43;99339.72;;;0.41;93.52
58668;BME280;59852;43.086;25.634;2023-01-29T08:16:08;99344.47;;;0.59;92.63
58668;BME280;59852;43.086;25.634;2023-01-29T08:18:35;99336.47;;;0.71;91.44
58668;BME280;59852;43.086;25.634;2023-01-29T08:21:00;99344.25;;;0.28;92.46
58668;BME280;59852;43.086;25.634;2023-01-29T08:23:26;99341.41;;;0.42;93.06
58668;BME280;59852;43.086;25.634;2023-01-29T08:25:51;99350.25;;;0.69;91.91
58668;BME280;59852;43.086;25.634;2023-01-29T08:28:17;99350.47;;;0.60;91.19
58668;BME280;59852;43.086;25.634;2023-01-29T08:30:42;99352.63;;;0.78;89.91
58668;BME280;59852;43.086;25.634;2023-01-29T08:33:08;99354.41;;;0.34;91.45
58668;BME280;59852;43.086;25.634;2023-01-29T08:35:33;99358.59;;;0.40;92.73
58668;BME280;59852;43.086;25.634;2023-01-29T08:37:59;99357.28;;;0.19;92.47
58668;BME280;59852;43.086;25.634;2023-01-29T08:40:25;99363.09;;;0.30;92.27
58668;BME280;59852;43.086;25.634;2023-01-29T08:42:51;99362.06;;;0.37;92.61
58668;BME280;59852;43.086;25.634;2023-01-29T08:45:16;99365.84;;;0.63;92.31
58668;BME280;59852;43.086;25.634;2023-01-29T08:47:46;99365.72;;;0.67;92.09
58668;BME280;59852;43.086;25.634;2023-01-29T08:50:11;99361.81;;;0.51;92.58
58668;BME280;59852;43.086;25.634;2023-01-29T08:52:36;99362.25;;;0.70;91.63
58668;BME280;59852;43.086;25.634;2023-01-29T08:55:02;99367.81;;;0.90;90.99
58668;BME280;59852;43.086;25.634;2023-01-29T08:57:27;99369.31;;;0.62;90.89
58668;BME280;59852;43.086;25.634;2023-01-29T08:59:52;99363.28;;;1.01;91.17
58668;BME280;59852;43.086;25.634;2023-01-29T09:02:18;99359.00;;;1.36;88.80
58668;BME280;59852;43.086;25.634;2023-01-29T09:04:43;99355.84;;;1.25;88.24
58668;BME280;59852;43.086;25.634;2023-01-29T09:07:08;99356.41;;;1.37;88.34
58668;BME280;59852;43.086;25.634;2023-01-29T09:09:34;99364.88;;;1.05;89.64
58668;BME280;59852;43.086;25.634;2023-01-29T09:11:59;99357.72;;;1.20;89.23
58668;BME280;59852;43.086;25.634;2023-01-29T09:14:25;99362.97;;;0.76;90.49
58668;BME280;59852;43.086;25.634;2023-01-29T09:16:51;99359.22;;;0.91;91.53
58668;BME280;59852;43.086;25.634;2023-01-29T09:19:17;99361.03;;;0.86;91.91
58668;BME280;59852;43.086;25.634;2023-01-29T09:21:42;99356.47;;;0.97;91.16
58668;BME280;59852;43.086;25.634;2023-01-29T09:24:07;99362.34;;;1.04;90.62
58668;BME280;59852;43.086;25.634;2023-01-29T09:26:32;99355.44;;;1.06;90.87
58668;BME280;59852;43.086;25.634;2023-01-29T09:28:58;99354.47;;;1.11;90.20
58668;BME280;59852;43.086;25.634;2023-01-29T09:31:23;99351.97;;;1.08;89.77
58668;BME280;59852;43.086;25.634;2023-01-29T09:33:48;99359.69;;;1.07;89.88
58668;BME280;59852;43.086;25.634;2023-01-29T09:36:14;99353.91;;;0.99;89.88
58668;BME280;59852;43.086;25.634;2023-01-29T09:38:39;99359.94;;;0.96;90.68
58668;BME280;59852;43.086;25.634;2023-01-29T09:41:15;99354.63;;;1.04;90.61
58668;BME280;59852;43.086;25.634;2023-01-29T09:46:23;99358.47;;;0.86;90.93
58668;BME280;59852;43.086;25.634;2023-01-29T09:48:55;99354.78;;;0.96;91.10
58668;BME280;59852;43.086;25.634;2023-01-29T09:51:26;99348.53;;;1.06;90.56
58668;BME280;59852;43.086;25.634;2023-01-29T09:54:05;99349.38;;;1.08;90.32
58668;BME280;59852;43.086;25.634;2023-01-29T09:56:35;99345.09;;;1.07;90.18
58668;BME280;59852;43.086;25.634;2023-01-29T09:59:00;99344.63;;;0.51;91.53
58668;BME280;59852;43.086;25.634;2023-01-29T10:09:20;99347.25;;;0.89;91.38
58668;BME280;59852;43.086;25.634;2023-01-29T10:11:57;99351.00;;;0.74;91.66
58668;BME280;59852;43.086;25.634;2023-01-29T10:14:45;99342.31;;;0.78;92.06
58668;BME280;59852;43.086;25.634;2023-01-29T10:24:56;99334.41;;;0.87;92.54
58668;BME280;59852;43.086;25.634;2023-01-29T10:27:22;99328.94;;;1.01;92.30
58668;BME280;59852;43.086;25.634;2023-01-29T10:29:51;99331.19;;;0.77;92.00
58668;BME280;59852;43.086;25.634;2023-01-29T10:32:19;99330.50;;;0.71;93.03
58668;BME280;59852;43.086;25.634;2023-01-29T10:34:49;99324.00;;;0.92;92.94
58668;BME280;59852;43.086;25.634;2023-01-29T10:37:17;99325.88;;;0.85;91.72
58668;BME280;59852;43.086;25.634;2023-01-29T10:39:43;99320.00;;;0.80;92.85
58668;BME280;59852;43.086;25.634;2023-01-29T10:44:56;99313.38;;;1.05;91.26
58668;BME280;59852;43.086;25.634;2023-01-29T10:55:03;99304.91;;;1.00;90.23
58668;BME280;59852;43.086;25.634;2023-01-29T10:57:40;99302.84;;;0.79;91.79
58668;BME280;59852;43.086;25.634;2023-01-29T11:00:16;99300.69;;;0.96;91.25
58668;BME280;59852;43.086;25.634;2023-01-29T11:02:44;99294.00;;;1.25;90.46
58668;BME280;59852;43.086;25.634;2023-01-29T11:05:15;99295.34;;;1.05;90.39
58668;BME280;59852;43.086;25.634;2023-01-29T11:07:43;99298.06;;;0.99;90.95
58668;BME280;59852;43.086;25.634;2023-01-29T11:10:13;99285.63;;;1.17;90.60
58668;BME280;59852;43.086;25.634;2023-01-29T11:12:39;99287.38;;;1.14;90.57
58668;BME280;59852;43.086;25.634;2023-01-29T11:15:06;99287.56;;;1.08;91.60
58668;BME280;59852;43.086;25.634;2023-01-29T11:17:38;99281.56;;;1.06;91.69
58668;BME280;59852;43.086;25.634;2023-01-29T11:20:05;99284.19;;;1.05;92.17
58668;BME280;59852;43.086;25.634;2023-01-29T11:22:30;99276.13;;;0.83;92.64
58668;BME280;59852;43.086;25.634;2023-01-29T11:25:09;99272.91;;;1.10;91.76
58668;BME280;59852;43.086;25.634;2023-01-29T11:27:49;99269.13;;;1.24;90.67
58668;BME280;59852;43.086;25.634;2023-01-29T11:30:23;99260.41;;;1.28;90.38
58668;BME280;59852;43.086;25.634;2023-01-29T11:32:51;99263.31;;;1.15;90.83
58668;BME280;59852;43.086;25.634;2023-01-29T11:35:20;99264.28;;;1.11;90.85
58668;BME280;59852;43.086;25.634;2023-01-29T11:37:47;99258.97;;;1.18;91.22
58668;BME280;59852;43.086;25.634;2023-01-29T11:42:47;99262.75;;;1.04;91.84
58668;BME280;59852;43.086;25.634;2023-01-29T11:47:47;99263.13;;;0.88;93.09
58668;BME280;59852;43.086;25.634;2023-01-29T11:50:18;99263.75;;;0.97;93.07
58668;BME280;59852;43.086;25.634;2023-01-29T11:52:44;99255.81;;;1.06;92.32
58668;BME280;59852;43.086;25.634;2023-01-29T11:55:16;99245.31;;;1.14;92.10
58668;BME280;59852;43.086;25.634;2023-01-29T11:57:45;99254.66;;;0.84;92.92
58668;BME280;59852;43.086;25.634;2023-01-29T12:00:17;99252.69;;;0.94;93.85
58668;BME280;59852;43.086;25.634;2023-01-29T12:02:44;99244.63;;;1.07;93.04
58668;BME280;59852;43.086;25.634;2023-01-29T12:05:15;99259.91;;;0.79;92.89
58668;BME280;59852;43.086;25.634;2023-01-29T12:07:42;99254.13;;;1.05;92.74
58668;BME280;59852;43.086;25.634;2023-01-29T12:10:27;99243.59;;;0.80;93.77
58668;BME280;59852;43.086;25.634;2023-01-29T12:12:57;99235.34;;;1.02;92.57
58668;BME280;59852;43.086;25.634;2023-01-29T12:15:27;99240.41;;;1.05;92.26
58668;BME280;59852;43.086;25.634;2023-01-29T12:18:04;99241.91;;;1.13;91.66
58668;BME280;59852;43.086;25.634;2023-01-29T12:20:33;99241.81;;;1.17;91.18
58668;BME280;59852;43.086;25.634;2023-01-29T12:23:10;99250.28;;;1.22;91.14
58668;BME280;59852;43.086;25.634;2023-01-29T12:25:46;99245.97;;;1.22;91.34
58668;BME280;59852;43.086;25.634;2023-01-29T12:31:06;99254.56;;;1.23;92.00
58668;BME280;59852;43.086;25.634;2023-01-29T12:36:48;99247.53;;;1.28;91.33
58668;BME280;59852;43.086;25.634;2023-01-29T12:39:07;99253.09;;;1.12;90.90
58668;BME280;59852;43.086;25.634;2023-01-29T12:41:40;99252.28;;;1.10;91.25
58668;BME280;59852;43.086;25.634;2023-01-29T12:44:11;99260.25;;;1.01;91.42
58668;BME280;59852;43.086;25.634;2023-01-29T12:46:39;99256.56;;;1.11;91.73
58668;BME280;59852;43.086;25.634;2023-01-29T12:49:09;99258.19;;;1.14;91.29
58668;BME280;59852;43.086;25.634;2023-01-29T12:51:38;99263.53;;;1.06;92.02
58668;BME280;59852;43.086;25.634;2023-01-29T12:54:27;99258.38;;;1.06;91.94
58668;BME280;59852;43.086;25.634;2023-01-29T12:56:50;99271.78;;;1.21;91.55
58668;BME280;59852;43.086;25.634;2023-01-29T13:00:03;99266.78;;;1.14;91.47
58668;BME280;59852;43.086;25.634;2023-01-29T13:02:05;99271.00;;;1.17;91.75
58668;BME280;59852;43.086;25.634;2023-01-29T13:04:38;99278.09;;;1.09;91.54
58668;BME280;59852;43.086;25.634;2023-01-29T13:09:34;99279.88;;;1.05;92.58
58668;BME280;59852;43.086;25.634;2023-01-29T13:12:02;99271.88;;;1.16;91.71
58668;BME280;59852;43.086;25.634;2023-01-29T13:17:17;99278.91;;;1.11;91.38
58668;BME280;59852;43.086;25.634;2023-01-29T13:19:44;99282.53;;;1.02;91.27
58668;BME280;59852;43.086;25.634;2023-01-29T13:25:05;99274.63;;;1.10;92.20
58668;BME280;59852;43.086;25.634;2023-01-29T13:27:36;99266.78;;;1.14;91.80
58668;BME280;59852;43.086;25.634;2023-01-29T13:30:02;99267.81;;;1.07;91.79
58668;BME280;59852;43.086;25.634;2023-01-29T13:32:28;99267.00;;;1.05;91.80
58668;BME280;59852;43.086;25.634;2023-01-29T13:34:58;99265.56;;;0.94;92.23
58668;BME280;59852;43.086;25.634;2023-01-29T13:39:53;99263.22;;;1.20;91.38
58668;BME280;59852;43.086;25.634;2023-01-29T13:44:48;99266.03;;;1.11;91.57
58668;BME280;59852;43.086;25.634;2023-01-29T13:47:47;99272.97;;;1.07;91.52
58668;BME280;59852;43.086;25.634;2023-01-29T13:50:06;99274.69;;;1.08;91.30
58668;BME280;59852;43.086;25.634;2023-01-29T13:55:02;99277.69;;;0.90;91.87
58668;BME280;59852;43.086;25.634;2023-01-29T14:02:44;99279.03;;;1.05;91.88
58668;BME280;59852;43.086;25.634;2023-01-29T14:07:53;99291.50;;;1.22;91.36
58668;BME280;59852;43.086;25.634;2023-01-29T14:10:19;99293.34;;;1.18;91.24
58668;BME280;59852;43.086;25.634;2023-01-29T14:12:46;99300.91;;;0.87;92.12
58668;BME280;59852;43.086;25.634;2023-01-29T14:15:19;99292.50;;;0.80;92.81
58668;BME280;59852;43.086;25.634;2023-01-29T14:20:33;99287.56;;;1.08;91.69
58668;BME280;59852;43.086;25.634;2023-01-29T14:23:00;99277.63;;;1.27;91.32
58668;BME280;59852;43.086;25.634;2023-01-29T14:25:27;99287.78;;;1.33;91.03
58668;BME280;59852;43.086;25.634;2023-01-29T14:27:53;99280.81;;;1.37;91.09
58668;BME280;59852;43.086;25.634;2023-01-29T14:30:19;99285.16;;;1.01;91.64
58668;BME280;59852;43.086;25.634;2023-01-29T14:32:46;99292.75;;;1.05;92.62
58668;BME280;59852;43.086;25.634;2023-01-29T14:35:23;99292.47;;;1.18;92.21
58668;BME280;59852;43.086;25.634;2023-01-29T14:37:50;99296.63;;;1.23;92.36
58668;BME280;59852;43.086;25.634;2023-01-29T14:42:49;99291.84;;;1.08;93.74
58668;BME280;59852;43.086;25.634;2023-01-29T14:45:37;99296.75;;;1.17;93.69
58668;BME280;59852;43.086;25.634;2023-01-29T14:53:13;99301.66;;;1.28;92.92
58668;BME280;59852;43.086;25.634;2023-01-29T14:55:42;99302.13;;;1.09;92.90
58668;BME280;59852;43.086;25.634;2023-01-29T14:58:12;99302.75;;;1.19;93.12
58668;BME280;59852;43.086;25.634;2023-01-29T15:00:39;99299.13;;;1.26;92.93
58668;BME280;59852;43.086;25.634;2023-01-29T15:06:05;99299.03;;;1.31;92.26
58668;BME280;59852;43.086;25.634;2023-01-29T15:08:35;99305.25;;;1.22;92.56
58668;BME280;59852;43.086;25.634;2023-01-29T15:11:02;99312.78;;;1.30;92.45
58668;BME280;59852;43.086;25.634;2023-01-29T15:13:51;99307.63;;;1.30;92.21
58668;BME280;59852;43.086;25.634;2023-01-29T15:16:23;99307.06;;;1.19;92.07